Time;durP1;ratioP1;P1;durP2;ratioP2;P2;SDS_P1;SDS_P2;PMS_P1;PMS_P2;Temp;Humidity;BMP_temperature;BMP_pressure;BME280_temperature;BME280_humidity;BME280_pressure;Samples;Min_cycle;Max_cycle;Signal;HPM_P1;HPM_P2
2022/03/07 00:01:29;;;;;;;10.95;7.55;;;;;;;0.56;53.79;101182.01;1822998;77;21609;-73
2022/03/07 00:03:56;;;;;;;13.43;7.12;;;;;;;0.56;53.85;101176.00;1817234;77;20876;-73
2022/03/07 00:06:23;;;;;;;13.00;8.35;;;;;;;0.54;53.76;101172.13;1827295;77;21333;-72
2022/03/07 00:08:51;;;;;;;14.05;8.40;;;;;;;0.53;53.81;101170.41;1819177;77;21446;-71
2022/03/07 00:11:20;;;;;;;11.43;7.00;;;;;;;0.53;53.93;101168.27;1813980;77;20855;-72
2022/03/07 00:13:48;;;;;;;12.95;6.58;;;;;;;0.54;53.87;101163.55;1820481;77;20946;-72
2022/03/07 00:16:17;;;;;;;11.55;7.53;;;;;;;0.54;54.11;101162.25;1818680;77;20948;-72
2022/03/07 00:18:44;;;;;;;12.93;8.08;;;;;;;0.55;54.05;101157.50;1832020;77;20963;-72
2022/03/07 00:21:12;;;;;;;10.75;7.00;;;;;;;0.55;54.02;101157.06;1829449;77;20979;-73
2022/03/07 00:23:41;;;;;;;11.65;7.20;;;;;;;0.53;53.97;101148.91;1816588;77;20839;-73
2022/03/07 00:26:08;;;;;;;11.93;6.65;;;;;;;0.53;54.07;101150.20;1822900;77;21187;-71
2022/03/07 00:28:37;;;;;;;12.05;7.30;;;;;;;0.53;54.24;101144.60;1822098;77;20986;-71
2022/03/07 00:31:08;;;;;;;9.95;6.33;;;;;;;0.52;54.40;101145.48;1825003;77;20876;-72
2022/03/07 00:33:35;;;;;;;12.33;6.87;;;;;;;0.52;54.64;101144.64;1819164;77;20889;-72
2022/03/07 00:36:04;;;;;;;10.08;6.45;;;;;;;0.50;54.98;101136.91;1825764;77;21033;-72
2022/03/07 00:38:33;;;;;;;13.18;7.62;;;;;;;0.51;55.16;101145.08;1833499;77;21510;-72
2022/03/07 00:41:00;;;;;;;10.93;7.30;;;;;;;0.49;55.39;101142.95;1831940;77;20976;-71
2022/03/07 00:43:28;;;;;;;10.32;6.87;;;;;;;0.47;55.54;101133.48;1826148;77;20927;-72
2022/03/07 00:45:55;;;;;;;13.18;7.47;;;;;;;0.43;55.59;101133.13;1811777;77;21345;-73
2022/03/07 00:48:22;;;;;;;12.45;8.08;;;;;;;0.39;55.72;101131.00;1818882;77;20852;-72
2022/03/07 00:50:51;;;;;;;16.95;7.33;;;;;;;0.38;56.07;101126.28;1826251;77;21132;-72
2022/03/07 00:53:21;;;;;;;10.75;6.75;;;;;;;0.41;56.22;101120.23;1819030;77;20963;-70
2022/03/07 00:55:49;;;;;;;11.75;7.22;;;;;;;0.41;56.45;101109.91;1828773;77;20909;-72
2022/03/07 00:58:16;;;;;;;11.38;6.87;;;;;;;0.41;56.67;101113.78;1797583;77;20970;-72
2022/03/07 01:00:45;;;;;;;11.20;8.00;;;;;;;0.39;56.83;101107.78;1835612;77;20904;-74
2022/03/07 01:03:13;;;;;;;11.22;7.08;;;;;;;0.38;56.95;101099.64;1825886;77;21214;-72
2022/03/07 01:05:43;;;;;;;12.33;7.97;;;;;;;0.39;57.16;101100.04;1818163;77;20974;-71
2022/03/07 01:08:10;;;;;;;12.90;7.12;;;;;;;0.39;57.22;101089.72;1834796;77;20951;-72
2022/03/07 01:10:37;;;;;;;14.03;8.08;;;;;;;0.39;57.45;101093.59;1814625;77;20962;-73
2022/03/07 01:13:06;;;;;;;13.35;7.78;;;;;;;0.40;57.59;101092.30;1825643;77;21353;-73
2022/03/07 01:15:33;;;;;;;11.50;7.72;;;;;;;0.39;57.65;101085.41;1819166;77;21408;-72
2022/03/07 01:18:00;;;;;;;12.37;7.37;;;;;;;0.42;57.67;101085.81;1817716;77;20915;-71
2022/03/07 01:20:27;;;;;;;13.30;8.43;;;;;;;0.42;57.79;101084.52;1820089;77;20959;-71
2022/03/07 01:22:55;;;;;;;10.85;7.42;;;;;;;0.43;57.85;101075.92;1816148;77;20915;-71
2022/03/07 01:25:22;;;;;;;12.23;7.83;;;;;;;0.45;57.99;101079.79;1824347;77;21016;-72
2022/03/07 01:27:49;;;;;;;14.20;8.40;;;;;;;0.46;58.09;101077.61;1829070;77;21527;-71
2022/03/07 01:30:16;;;;;;;12.98;9.20;;;;;;;0.47;58.23;101067.28;1819192;77;21033;-72
2022/03/07 01:32:43;;;;;;;13.10;7.37;;;;;;;0.49;58.29;101068.13;1821738;77;20891;-71
2022/03/07 01:35:11;;;;;;;13.05;7.58;;;;;;;0.50;58.30;101063.81;1813581;77;21065;-72
2022/03/07 01:37:39;;;;;;;11.03;7.05;;;;;;;0.49;58.35;101064.66;1842732;77;21524;-71
2022/03/07 01:40:08;;;;;;;11.85;7.58;;;;;;;0.46;58.42;101065.56;1835602;77;22178;-73
2022/03/07 01:42:35;;;;;;;11.35;7.65;;;;;;;0.46;58.48;101060.40;1817745;77;20946;-71
2022/03/07 01:45:16;;;;;;;9.63;7.12;;;;;;;0.44;58.63;101062.14;1830178;77;20924;-71
2022/03/07 01:47:44;;;;;;;12.10;7.28;;;;;;;0.41;58.71;101059.16;1838076;77;20979;-72
2022/03/07 01:50:13;;;;;;;11.40;8.13;;;;;;;0.39;59.00;101057.03;1830775;77;20916;-73
2022/03/07 01:52:43;;;;;;;10.18;7.65;;;;;;;0.40;59.00;101051.02;1802311;77;21154;-71
2022/03/07 01:55:11;;;;;;;11.35;7.83;;;;;;;0.41;59.06;101051.87;1820630;77;20963;-72
2022/03/07 01:57:42;;;;;;;12.20;8.80;;;;;;;0.40;59.07;101051.43;1811203;78;20892;-72
2022/03/07 02:00:14;;;;;;;12.98;7.83;;;;;;;0.37;59.14;101054.91;1828281;77;21370;-71
2022/03/07 02:02:43;;;;;;;11.85;6.92;;;;;;;0.37;59.19;101051.03;1824268;77;20881;-72
2022/03/07 02:05:11;;;;;;;10.05;7.08;;;;;;;0.35;59.20;101051.48;1825327;77;21578;-71
2022/03/07 02:07:41;;;;;;;10.65;7.10;;;;;;;0.37;59.37;101050.19;1837758;77;20912;-72
2022/03/07 02:10:11;;;;;;;10.50;7.67;;;;;;;0.36;59.40;101049.34;1829118;77;20852;-71
2022/03/07 02:12:38;;;;;;;10.13;6.87;;;;;;;0.38;59.47;101043.73;1830655;77;21462;-71
2022/03/07 02:15:08;;;;;;;10.18;7.62;;;;;;;0.39;59.51;101045.86;1820764;77;20947;-72
2022/03/07 02:17:37;;;;;;;10.15;7.35;;;;;;;0.39;59.59;101044.58;1822774;77;21258;-72
2022/03/07 02:20:07;;;;;;;11.48;6.83;;;;;;;0.41;59.71;101045.42;1819562;77;22482;-71
2022/03/07 02:22:34;;;;;;;11.68;7.72;;;;;;;0.40;59.62;101038.13;1819070;77;20990;-71
2022/03/07 02:25:02;;;;;;;11.88;8.03;;;;;;;0.39;59.78;101041.55;1828159;77;20892;-71
2022/03/07 02:27:30;;;;;;;10.35;7.05;;;;;;;0.40;59.72;101034.25;1835020;77;20868;-71
2022/03/07 02:29:59;;;;;;;10.40;7.62;;;;;;;0.41;59.79;101036.39;1830169;77;21089;-72
2022/03/07 02:32:27;;;;;;;12.20;8.00;;;;;;;0.43;59.75;101039.80;1795283;77;20974;-71
2022/03/07 02:34:56;;;;;;;10.88;7.62;;;;;;;0.43;59.74;101036.38;1838581;77;20899;-72
2022/03/07 02:37:24;;;;;;;9.60;7.40;;;;;;;0.43;59.81;101035.94;1829122;77;21417;-71
2022/03/07 02:39:53;;;;;;;9.38;6.78;;;;;;;0.41;59.80;101037.23;1809752;78;20915;-71
2022/03/07 02:42:21;;;;;;;11.20;7.50;;;;;;;0.40;59.82;101038.13;1819186;77;21575;-70
2022/03/07 02:44:49;;;;;;;11.22;7.25;;;;;;;0.40;59.93;101034.25;1825453;77;20927;-72
2022/03/07 02:47:16;;;;;;;11.60;8.28;;;;;;;0.41;59.90;101029.49;1818834;77;20933;-72
2022/03/07 02:49:43;;;;;;;9.70;7.20;;;;;;;0.40;60.00;101029.50;1831731;77;21053;-73
2022/03/07 02:52:11;;;;;;;10.98;7.53;;;;;;;0.40;60.10;101037.24;1822520;77;21033;-71
2022/03/07 02:54:38;;;;;;;9.35;6.95;;;;;;;0.37;60.13;101033.42;1834029;77;21813;-72
2022/03/07 02:57:08;;;;;;;11.40;8.43;;;;;;;0.35;60.24;101032.58;1827657;77;21394;-72
2022/03/07 02:59:36;;;;;;;11.45;7.42;;;;;;;0.32;60.44;101028.75;1821873;77;21112;-71
2022/03/07 03:02:03;;;;;;;9.95;7.10;;;;;;;0.33;60.57;101025.30;1841076;77;20880;-71
2022/03/07 03:07:34;;;;;;;14.28;7.15;;;;;;;0.41;60.67;101019.62;1816400;79;22556;-71
2022/03/07 03:10:01;;;;;;;10.58;8.05;;;;;;;0.37;60.74;101022.66;1789613;80;21034;-71
2022/03/07 03:12:29;;;;;;;10.85;6.53;;;;;;;0.38;60.77;101024.38;1789489;80;21389;-73
2022/03/07 03:14:57;;;;;;;8.25;6.75;;;;;;;0.38;60.78;101024.38;1789456;80;20912;-70
2022/03/07 03:17:25;;;;;;;11.83;7.90;;;;;;;0.39;60.85;101018.78;1789430;80;20935;-71
2022/03/07 03:19:53;;;;;;;8.05;6.55;;;;;;;0.39;60.85;101014.91;1789394;80;20982;-72
2022/03/07 03:22:20;;;;;;;16.45;9.98;;;;;;;0.42;60.87;101014.86;1789429;80;20927;-71
2022/03/07 03:24:47;;;;;;;7.50;6.10;;;;;;;0.42;60.97;101016.16;1789518;80;21127;-72
2022/03/07 03:27:15;;;;;;;12.58;6.85;;;;;;;0.43;61.03;101019.17;1789461;80;20940;-71
2022/03/07 03:29:42;;;;;;;10.88;6.65;;;;;;;0.42;61.07;101018.73;1789413;80;20944;-71
2022/03/07 03:32:09;;;;;;;10.00;6.97;;;;;;;0.43;61.21;101012.72;1789747;80;20857;-71
2022/03/07 03:34:36;;;;;;;8.13;6.40;;;;;;;0.41;61.29;101015.30;1789549;80;20916;-72
2022/03/07 03:37:03;;;;;;;12.53;7.62;;;;;;;0.43;61.35;101008.84;1789631;80;21506;-73
2022/03/07 03:39:30;;;;;;;8.50;6.60;;;;;;;0.43;61.45;101006.27;1789762;80;20975;-70
2022/03/07 03:41:58;;;;;;;8.63;6.80;;;;;;;0.46;61.42;101001.06;1789350;80;20853;-72
2022/03/07 03:44:25;;;;;;;9.10;7.12;;;;;;;0.47;61.50;100998.91;1789559;80;21341;-72
2022/03/07 03:46:52;;;;;;;7.45;6.65;;;;;;;0.50;61.56;100995.44;1789603;80;21428;-72
2022/03/07 03:49:19;;;;;;;11.35;7.50;;;;;;;0.50;61.64;100989.83;1789536;80;21620;-71
2022/03/07 03:51:46;;;;;;;9.00;6.85;;;;;;;0.54;61.60;100995.82;1789420;80;21404;-72
2022/03/07 03:54:13;;;;;;;13.95;8.38;;;;;;;0.54;61.60;100990.22;1789497;80;20928;-72
2022/03/07 03:56:40;;;;;;;18.73;13.05;;;;;;;0.56;61.68;100992.78;1789340;80;20966;-73
2022/03/07 03:59:07;;;;;;;17.30;11.38;;;;;;;0.57;61.75;100991.45;1789455;80;21465;-72
2022/03/07 04:01:34;;;;;;;12.05;7.75;;;;;;;0.63;61.66;100989.69;1789604;80;21005;-71
2022/03/07 04:04:01;;;;;;;8.90;6.60;;;;;;;0.67;61.78;100987.05;1789281;80;20951;-71
2022/03/07 04:06:29;;;;;;;11.28;8.90;;;;;;;0.74;61.82;100985.23;1783468;80;20892;-71
2022/03/07 04:09:01;;;;;;;10.08;7.42;;;;;;;0.76;61.71;100981.75;1775984;80;20943;-72
2022/03/07 04:11:33;;;;;;;10.80;7.53;;;;;;;0.80;61.57;100975.68;1738898;82;20928;-72
2022/03/07 04:14:02;;;;;;;11.93;7.50;;;;;;;0.79;61.57;100972.67;1775930;80;21186;-73
2022/03/07 04:16:29;;;;;;;9.75;7.75;;;;;;;0.82;61.54;100970.06;1775768;80;20865;-72
2022/03/07 04:18:58;;;;;;;13.32;9.43;;;;;;;0.79;61.64;100971.38;1775396;80;20935;-72
2022/03/07 04:21:26;;;;;;;26.65;19.17;;;;;;;0.80;61.63;100970.52;1775562;80;20940;-73
2022/03/07 04:23:54;;;;;;;11.12;8.03;;;;;;;0.77;61.72;100970.98;1775331;80;20975;-72
2022/03/07 04:26:21;;;;;;;11.75;9.00;;;;;;;0.76;61.81;100962.84;1775233;80;21301;-72
2022/03/07 04:28:48;;;;;;;10.95;7.53;;;;;;;0.73;61.87;100965.45;1775277;80;20916;-71
2022/03/07 04:31:15;;;;;;;10.45;7.33;;;;;;;0.71;61.90;100964.20;1775275;80;20928;-72
2022/03/07 04:33:42;;;;;;;11.05;8.40;;;;;;;0.68;61.95;100955.63;1775364;80;20952;-71
2022/03/07 04:36:12;;;;;;;13.58;9.15;;;;;;;0.66;61.96;100956.94;1775297;80;21402;-71
2022/03/07 04:38:39;;;;;;;10.85;8.73;;;;;;;0.63;61.96;100958.28;1738342;82;22195;-72
2022/03/07 04:41:07;;;;;;;11.12;7.55;;;;;;;0.60;61.88;100955.72;1775316;80;21369;-71
2022/03/07 04:43:35;;;;;;;9.80;7.55;;;;;;;0.55;61.92;100948.04;1775334;80;21294;-72
2022/03/07 04:46:02;;;;;;;11.43;8.25;;;;;;;0.53;61.96;100948.94;1775583;80;21405;-71
2022/03/07 04:48:29;;;;;;;13.80;9.08;;;;;;;0.51;62.01;100949.39;1775348;80;21454;-71
2022/03/07 04:50:57;;;;;;;9.93;8.23;;;;;;;0.49;62.12;100939.53;1775388;80;21140;-71
2022/03/07 04:53:24;;;;;;;10.32;8.33;;;;;;;0.49;62.19;100942.11;1775254;80;20936;-73
2022/03/07 04:55:51;;;;;;;10.40;7.95;;;;;;;0.48;62.13;100938.69;1775227;80;20943;-72
2022/03/07 04:58:18;;;;;;;10.50;8.03;;;;;;;0.50;62.01;100937.38;1738312;82;20925;-72
2022/03/07 05:00:45;;;;;;;10.45;7.70;;;;;;;0.50;62.09;100931.78;1775665;80;20979;-72
2022/03/07 05:03:12;;;;;;;9.33;6.97;;;;;;;0.51;62.03;100927.46;1775218;80;21807;-72
2022/03/07 05:05:39;;;;;;;8.60;7.45;;;;;;;0.51;62.06;100925.77;1775366;80;21528;-72
2022/03/07 05:08:08;;;;;;;8.35;7.47;;;;;;;0.54;62.05;100928.73;1775275;80;20895;-72
2022/03/07 05:10:35;;;;;;;11.18;8.53;;;;;;;0.53;61.96;100927.86;1775363;80;20892;-72
2022/03/07 05:13:02;;;;;;;9.93;7.35;;;;;;;0.54;62.07;100920.99;1775429;80;21567;-72
2022/03/07 05:15:30;;;;;;;10.30;7.30;;;;;;;0.55;62.08;100923.53;1775257;80;21023;-72
2022/03/07 05:17:58;;;;;;;11.28;8.25;;;;;;;0.58;61.99;100920.08;1775602;80;20972;-72
2022/03/07 05:20:25;;;;;;;17.17;7.55;;;;;;;0.58;61.98;100918.34;1775226;80;20928;-71
2022/03/07 05:22:53;;;;;;;10.30;7.55;;;;;;;0.58;61.90;100916.21;1775268;80;20948;-73
2022/03/07 05:25:20;;;;;;;10.05;7.00;;;;;;;0.57;62.09;100917.06;1775237;80;20920;-72
2022/03/07 05:27:48;;;;;;;9.85;8.15;;;;;;;0.58;61.89;100918.34;1775214;80;21135;-72
2022/03/07 05:30:19;;;;;;;13.35;8.60;;;;;;;0.54;61.99;100911.52;1775429;80;20950;-72
2022/03/07 05:32:47;;;;;;;11.80;7.10;;;;;;;0.56;62.11;100907.63;1775313;80;20935;-72
2022/03/07 05:35:14;;;;;;;12.93;7.70;;;;;;;0.56;62.08;100905.90;1775477;80;20971;-73
2022/03/07 05:37:42;;;;;;;11.45;8.25;;;;;;;0.58;62.00;100904.59;1775292;80;21090;-72
2022/03/07 05:40:09;;;;;;;9.60;7.50;;;;;;;0.58;62.20;100903.30;1775209;80;21626;-71
2022/03/07 05:42:37;;;;;;;9.03;7.50;;;;;;;0.60;62.19;100902.41;1775186;80;20876;-72
2022/03/07 05:45:06;;;;;;;11.40;8.05;;;;;;;0.61;62.21;100904.54;1775449;80;20869;-72
2022/03/07 05:47:33;;;;;;;12.73;8.13;;;;;;;0.61;62.24;100902.80;1775542;80;20975;-73
2022/03/07 05:50:00;;;;;;;14.13;9.33;;;;;;;0.64;62.33;100907.06;1775208;80;20932;-72
2022/03/07 05:52:28;;;;;;;13.65;8.93;;;;;;;0.69;62.34;100908.28;1775294;80;21120;-71
2022/03/07 05:54:56;;;;;;;16.05;9.98;;;;;;;0.69;62.29;100898.84;1775504;80;20889;-73
2022/03/07 05:57:23;;;;;;;18.10;10.43;;;;;;;0.71;62.31;100904.83;1775209;80;20932;-73
2022/03/07 05:59:50;;;;;;;13.58;9.75;;;;;;;0.73;62.33;100904.34;1775426;80;20896;-72
2022/03/07 06:02:17;;;;;;;13.80;10.43;;;;;;;0.76;62.43;100904.77;1775308;80;20888;-73
2022/03/07 06:04:46;;;;;;;12.55;8.93;;;;;;;0.78;62.72;100904.30;1775247;80;21190;-73
2022/03/07 06:07:13;;;;;;;16.32;8.48;;;;;;;0.82;62.78;100901.66;1771187;80;20901;-73
2022/03/07 06:09:40;;;;;;;15.53;9.28;;;;;;;0.87;62.90;100893.84;1768084;81;21525;-72
2022/03/07 06:12:09;;;;;;;21.65;12.85;;;;;;;0.91;62.76;100898.49;1768099;81;20937;-73
2022/03/07 06:14:36;;;;;;;14.65;10.43;;;;;;;0.91;62.92;100898.08;1768152;81;20932;-72
2022/03/07 06:17:03;;;;;;;13.48;10.13;;;;;;;0.94;62.91;100894.14;1768373;81;21876;-73
2022/03/07 06:19:35;;;;;;;16.15;10.72;;;;;;;1.00;62.95;100900.51;1768147;81;20920;-73
2022/03/07 06:22:02;;;;;;;15.45;9.73;;;;;;;1.05;62.76;100898.30;1768192;81;20949;-73
2022/03/07 06:24:29;;;;;;;14.53;9.83;;;;;;;1.05;62.60;100901.73;1768045;81;21445;-73
2022/03/07 06:26:57;;;;;;;17.50;11.45;;;;;;;1.05;62.74;100904.30;1768174;80;20854;-74
2022/03/07 06:29:24;;;;;;;15.55;11.40;;;;;;;1.07;62.84;100905.14;1768236;81;21142;-73
2022/03/07 06:31:51;;;;;;;16.87;10.08;;;;;;;1.08;62.70;100902.95;1768089;80;20908;-72
2022/03/07 06:34:18;;;;;;;20.48;11.48;;;;;;;1.08;62.68;100902.95;1767927;80;20873;-72
2022/03/07 06:36:46;;;;;;;18.20;12.28;;;;;;;1.10;62.74;100899.91;1768090;80;20885;-72
2022/03/07 06:39:13;;;;;;;17.25;10.90;;;;;;;1.11;62.75;100887.42;1768109;81;21021;-73
2022/03/07 06:41:40;;;;;;;16.23;10.95;;;;;;;1.10;62.94;100901.65;1768167;81;21555;-73
2022/03/07 06:44:07;;;;;;;18.92;11.33;;;;;;;1.08;62.99;100900.38;1767975;81;20912;-72
2022/03/07 06:46:34;;;;;;;16.67;11.22;;;;;;;1.10;63.11;100892.61;1768099;81;20929;-73
2022/03/07 06:49:01;;;;;;;16.77;10.45;;;;;;;1.14;63.00;100893.82;1768131;81;20967;-73
2022/03/07 06:51:28;;;;;;;17.42;11.28;;;;;;;1.15;62.95;100885.18;1768076;80;21291;-71
2022/03/07 06:53:58;;;;;;;18.12;13.55;;;;;;;1.17;63.04;100891.63;1768035;81;22043;-73
2022/03/07 06:56:24;;;;;;;19.98;13.88;;;;;;;1.20;63.26;100889.85;1767988;81;20917;-73
2022/03/07 06:58:52;;;;;;;19.62;13.13;;;;;;;1.22;63.30;100887.22;1768629;81;20987;-73
2022/03/07 07:01:19;;;;;;;18.92;12.65;;;;;;;1.23;63.27;100886.36;1768115;81;20893;-74
2022/03/07 07:03:46;;;;;;;19.92;12.60;;;;;;;1.24;63.33;100880.30;1768127;80;20841;-72
2022/03/07 07:06:13;;;;;;;18.77;13.15;;;;;;;1.25;63.53;100884.60;1768202;81;21141;-73
2022/03/07 07:08:40;;;;;;;20.20;14.07;;;;;;;1.25;63.72;100882.02;1767989;80;20980;-73
2022/03/07 07:11:08;;;;;;;20.82;13.03;;;;;;;1.28;64.09;100881.11;1768391;80;20834;-73
2022/03/07 07:13:35;;;;;;;16.80;12.28;;;;;;;1.31;64.34;100875.46;1768111;81;20932;-74
2022/03/07 07:16:02;;;;;;;17.50;12.15;;;;;;;1.33;64.40;100873.67;1768198;81;20889;-73
2022/03/07 07:18:29;;;;;;;15.72;10.40;;;;;;;1.32;64.39;100874.57;1768031;81;21248;-73
2022/03/07 07:20:56;;;;;;;19.35;11.28;;;;;;;1.30;64.66;100859.98;1768345;81;20897;-73
2022/03/07 07:23:23;;;;;;;15.30;10.23;;;;;;;1.31;64.72;100861.25;1768238;81;21000;-74
2022/03/07 07:25:50;;;;;;;13.98;10.13;;;;;;;1.35;64.38;100862.88;1767939;81;20948;-74
2022/03/07 07:28:17;;;;;;;11.78;8.90;;;;;;;1.33;63.76;100859.46;1768242;81;21334;-75
2022/03/07 07:30:46;;;;;;;13.10;9.80;;;;;;;1.33;63.64;100853.00;1767989;81;21187;-73
2022/03/07 07:33:13;;;;;;;14.38;8.83;;;;;;;1.38;63.28;100845.17;1768061;81;20892;-74
2022/03/07 07:35:41;;;;;;;12.88;9.68;;;;;;;1.38;61.98;100836.13;1768044;81;21225;-72
2022/03/07 07:38:09;;;;;;;11.85;8.85;;;;;;;1.38;61.78;100833.54;1768037;81;20889;-74
2022/03/07 07:40:36;;;;;;;14.28;9.33;;;;;;;1.40;61.49;100830.48;1768512;81;20880;-75
2022/03/07 07:43:03;;;;;;;14.07;8.88;;;;;;;1.42;61.27;100827.02;1767991;80;21130;-73
2022/03/07 07:45:30;;;;;;;12.05;7.95;;;;;;;1.45;61.37;100823.08;1767923;81;20920;-73
2022/03/07 07:47:59;;;;;;;14.73;9.65;;;;;;;1.48;60.80;100823.45;1768091;81;20920;-72
2022/03/07 07:50:27;;;;;;;15.98;10.32;;;;;;;1.47;61.14;100820.47;1767979;81;20944;-73
2022/03/07 07:52:55;;;;;;;14.33;9.85;;;;;;;1.50;61.39;100819.11;1768149;81;21046;-72
2022/03/07 07:55:23;;;;;;;14.20;8.83;;;;;;;1.54;61.54;100821.20;1768338;81;21044;-72
2022/03/07 07:57:50;;;;;;;15.75;11.18;;;;;;;1.56;60.92;100816.41;1768089;81;21413;-73
2022/03/07 08:00:20;;;;;;;12.82;9.13;;;;;;;1.58;61.21;100811.19;1768430;81;20928;-72
2022/03/07 08:02:48;;;;;;;13.75;8.03;;;;;;;1.63;60.99;100817.14;1768477;81;20877;-73
2022/03/07 08:05:16;;;;;;;11.43;7.97;;;;;;;1.70;60.67;100809.67;1768356;80;20897;-75
2022/03/07 08:07:43;;;;;;;10.13;7.30;;;;;;;1.76;60.09;100813.88;1770901;80;21838;-73
2022/03/07 08:10:11;;;;;;;9.43;6.50;;;;;;;1.78;59.79;100805.20;1775060;80;21361;-73
2022/03/07 08:12:39;;;;;;;8.80;5.85;;;;;;;1.80;59.46;100802.15;1775486;80;20955;-73
2022/03/07 08:15:11;;;;;;;9.15;5.58;;;;;;;1.78;58.60;100801.74;1775302;80;20952;-74
2022/03/07 08:17:43;;;;;;;9.35;6.40;;;;;;;1.75;58.78;100791.03;1775378;80;20994;-73
2022/03/07 08:20:11;;;;;;;6.67;5.67;;;;;;;1.75;58.94;100793.61;1775268;80;21228;-73
2022/03/07 08:22:38;;;;;;;5.83;4.60;;;;;;;1.78;58.33;100789.69;1775220;80;20896;-74
2022/03/07 08:25:07;;;;;;;8.38;6.20;;;;;;;1.79;58.34;100781.03;1775442;80;20929;-73
2022/03/07 08:27:34;;;;;;;8.98;5.42;;;;;;;1.84;58.20;100779.20;1775241;80;20967;-74
2022/03/07 08:30:03;;;;;;;6.95;5.50;;;;;;;1.88;57.67;100773.98;1775227;80;21015;-73
2022/03/07 08:32:30;;;;;;;7.25;5.95;;;;;;;1.91;57.05;100777.78;1775358;80;21283;-73
2022/03/07 08:34:57;;;;;;;8.53;5.80;;;;;;;1.92;56.75;100776.46;1775245;80;21407;-74
2022/03/07 08:37:24;;;;;;;7.55;4.22;;;;;;;1.94;56.83;100769.97;1775331;80;20900;-72
2022/03/07 08:39:53;;;;;;;10.98;5.70;;;;;;;1.93;56.59;100770.39;1775304;80;20888;-74
2022/03/07 08:42:20;;;;;;;11.90;6.80;;;;;;;1.94;56.75;100767.39;1775455;80;20857;-74
2022/03/07 08:44:48;;;;;;;7.95;5.75;;;;;;;1.91;57.28;100764.39;1775320;80;21160;-74
2022/03/07 08:47:15;;;;;;;9.35;6.12;;;;;;;1.88;57.65;100768.36;1775147;80;21407;-73
2022/03/07 08:49:42;;;;;;;7.72;5.62;;;;;;;1.82;57.65;100759.43;1775181;80;21496;-73
2022/03/07 08:52:09;;;;;;;7.80;5.62;;;;;;;1.76;58.07;100760.88;1775296;80;20896;-73
2022/03/07 08:54:39;;;;;;;9.43;5.80;;;;;;;1.68;58.39;100759.73;1775058;80;21381;-75
2022/03/07 08:57:06;;;;;;;7.15;5.47;;;;;;;1.62;58.98;100758.14;1775255;80;21169;-74
2022/03/07 08:59:33;;;;;;;10.85;6.87;;;;;;;1.60;59.56;100755.16;1775271;80;20888;-73
2022/03/07 09:02:00;;;;;;;11.12;7.40;;;;;;;1.57;60.16;100750.06;1775316;80;20896;-73
2022/03/07 09:04:27;;;;;;;10.43;6.70;;;;;;;1.57;60.47;100746.19;1775422;80;20943;-74
2022/03/07 09:06:54;;;;;;;9.98;7.47;;;;;;;1.64;60.57;100747.75;1738221;82;20944;-74
2022/03/07 09:09:22;;;;;;;11.73;6.87;;;;;;;1.67;61.05;100743.83;1775379;80;21145;-73
2022/03/07 09:11:51;;;;;;;9.48;6.00;;;;;;;1.72;61.22;100737.27;1775249;80;21088;-74
2022/03/07 09:14:18;;;;;;;7.92;6.22;;;;;;;1.79;60.88;100734.95;1775219;80;20877;-74
2022/03/07 09:16:47;;;;;;;8.98;5.72;;;;;;;1.87;60.88;100733.05;1775269;80;21334;-74
2022/03/07 09:19:14;;;;;;;13.93;8.68;;;;;;;1.93;60.09;100729.02;1775251;80;20952;-74
2022/03/07 09:21:41;;;;;;;8.45;6.80;;;;;;;1.99;60.15;100731.47;1775226;80;21226;-72
2022/03/07 09:24:10;;;;;;;9.83;6.58;;;;;;;2.04;59.40;100732.66;1774862;80;20865;-74
2022/03/07 09:26:37;;;;;;;7.65;5.55;;;;;;;2.49;59.26;100729.88;1775654;80;20901;-74
2022/03/07 09:29:04;;;;;;;10.63;6.78;;;;;;;3.23;58.74;100726.18;1775361;80;20892;-74
2022/03/07 09:31:31;;;;;;;8.28;5.62;;;;;;;4.13;56.28;100730.41;1775516;80;21224;-74
2022/03/07 09:33:58;;;;;;;4.95;4.35;;;;;;;5.00;54.24;100728.39;1775263;80;21214;-74
2022/03/07 09:36:26;;;;;;;6.40;3.87;;;;;;;5.75;51.02;100732.14;1775125;80;20877;-75
2022/03/07 09:38:55;;;;;;;9.10;6.22;;;;;;;6.39;48.80;100726.19;1775263;80;20940;-73
2022/03/07 09:41:22;;;;;;;6.20;4.65;;;;;;;6.98;46.24;100719.81;1775242;80;21023;-74
2022/03/07 09:43:49;;;;;;;6.42;5.22;;;;;;;7.50;46.55;100712.29;1775227;80;20928;-74
2022/03/07 09:46:18;;;;;;;6.67;4.22;;;;;;;7.95;45.86;100709.75;1775166;80;21601;-75
2022/03/07 09:48:47;;;;;;;4.37;3.98;;;;;;;8.20;44.08;100708.56;1775091;80;21350;-75
2022/03/07 09:51:15;;;;;;;7.08;4.45;;;;;;;8.07;42.33;100713.53;1775219;80;21472;-76
2022/03/07 09:53:44;;;;;;;7.92;3.75;;;;;;;7.76;43.37;100709.78;1775147;80;20897;-74
2022/03/07 09:56:11;;;;;;;5.60;3.75;;;;;;;7.59;42.88;100706.64;1775484;80;20936;-74
2022/03/07 09:58:40;;;;;;;4.20;3.80;;;;;;;7.40;42.37;100710.57;1774960;80;20888;-75
2022/03/07 10:01:13;;;;;;;6.53;4.60;;;;;;;7.20;43.26;100706.25;1775493;80;20841;-74
2022/03/07 10:03:41;;;;;;;7.07;5.03;;;;;;;7.01;43.38;100707.97;1775460;80;21326;-73
2022/03/07 10:06:16;;;;;;;9.40;5.28;;;;;;;6.75;43.07;100699.50;1775176;80;20904;-73
2022/03/07 10:08:56;;;;;;;14.28;8.98;;;;;;;6.57;44.13;100698.52;1778418;80;20904;-75
2022/03/07 10:11:24;;;;;;;12.18;6.37;;;;;;;6.47;44.16;100697.66;1783636;80;21239;-74
2022/03/07 10:13:56;;;;;;;8.00;6.15;;;;;;;6.40;43.90;100689.26;1783367;80;21433;-74
2022/03/07 10:16:43;;;;;;;8.60;6.10;;;;;;;6.30;43.99;100692.71;1783381;80;20979;-74
2022/03/07 10:19:13;;;;;;;9.10;5.47;;;;;;;6.23;44.19;100689.51;1783758;80;21430;-75
2022/03/07 10:21:51;;;;;;;5.10;4.30;;;;;;;6.30;44.64;100687.96;1783474;80;21496;-73
2022/03/07 10:24:32;;;;;;;5.25;3.75;;;;;;;6.28;42.74;100688.02;1783543;80;22072;-72
2022/03/07 10:27:02;;;;;;;4.60;4.12;;;;;;;6.13;42.68;100689.94;1782738;80;20959;-74
2022/03/07 10:29:29;;;;;;;5.45;4.10;;;;;;;6.03;42.76;100688.17;1753117;80;20896;-73
2022/03/07 10:31:57;;;;;;;4.72;4.30;;;;;;;5.92;42.71;100683.81;1783358;80;20974;-73
2022/03/07 10:34:25;;;;;;;6.75;4.62;;;;;;;5.81;43.14;100692.88;1783435;80;20935;-75
2022/03/07 10:36:53;;;;;;;9.98;5.90;;;;;;;5.67;43.85;100691.71;1783417;80;21554;-74
2022/03/07 10:39:26;;;;;;;5.62;5.03;;;;;;;5.50;44.40;100690.61;1783502;80;20951;-74
2022/03/07 10:41:53;;;;;;;8.15;5.45;;;;;;;5.30;45.53;100687.45;1783423;80;20924;-72
2022/03/07 10:44:28;;;;;;;9.10;5.87;;;;;;;5.08;46.39;100693.89;1783347;80;20928;-75
2022/03/07 10:47:09;;;;;;;11.03;8.70;;;;;;;4.82;48.05;100692.21;1783514;80;21215;-75
2022/03/07 10:49:53;;;;;;;8.43;6.72;;;;;;;4.56;49.35;100682.75;1782835;80;21225;-73
2022/03/07 10:52:23;;;;;;;9.00;6.55;;;;;;;4.38;50.16;100669.06;1783427;80;20915;-74
2022/03/07 10:54:51;;;;;;;11.35;9.73;;;;;;;4.27;50.99;100666.39;1783423;80;21370;-74
2022/03/07 10:57:19;;;;;;;9.55;8.55;;;;;;;4.25;51.55;100664.30;1783388;80;21481;-75
2022/03/07 10:59:47;;;;;;;8.10;5.78;;;;;;;4.37;52.48;100663.03;1783404;80;20837;-75
2022/03/07 11:02:17;;;;;;;9.43;6.10;;;;;;;4.55;52.51;100657.20;1783507;80;21196;-74
2022/03/07 11:04:48;;;;;;;7.90;6.25;;;;;;;4.91;52.10;100649.05;1783456;80;21397;-74
2022/03/07 11:07:15;;;;;;;5.65;5.08;;;;;;;5.28;52.51;100650.27;1783570;80;20931;-76
2022/03/07 11:09:42;;;;;;;6.22;4.95;;;;;;;5.68;50.87;100645.30;1777293;80;20968;-74
2022/03/07 11:12:13;;;;;;;13.58;5.45;;;;;;;5.94;49.30;100640.36;1775228;80;20884;-75
2022/03/07 11:14:41;;;;;;;5.40;4.87;;;;;;;6.15;48.00;100635.59;1775527;80;21243;-74
2022/03/07 11:17:16;;;;;;;7.00;5.40;;;;;;;6.24;45.99;100635.66;1775154;80;20873;-74
2022/03/07 11:19:47;;;;;;;4.70;4.30;;;;;;;6.27;45.03;100632.08;1753983;80;21433;-74
2022/03/07 11:22:15;;;;;;;7.80;5.45;;;;;;;6.20;44.77;100632.36;1775085;80;20901;-75
2022/03/07 11:24:43;;;;;;;8.38;5.15;;;;;;;6.11;43.96;100622.30;1775160;80;20999;-73
2022/03/07 11:27:10;;;;;;;6.45;5.25;;;;;;;5.92;44.31;100623.50;1775029;80;21998;-74
2022/03/07 11:29:40;;;;;;;5.78;4.95;;;;;;;5.85;44.34;100624.66;1775177;80;20872;-74
2022/03/07 11:32:18;;;;;;;5.33;4.83;;;;;;;5.83;44.40;100621.73;1775388;80;21424;-75
2022/03/07 11:34:58;;;;;;;7.95;4.87;;;;;;;5.85;44.15;100612.08;1767300;80;21378;-74